Calypso, North Carolina
Current Conditions -  °F | °C
As of 4:35 PM on Friday 28 Nov 2014 (Local Time) from KDPL Reporting Station
Clear Clear  
Wind Chill: 43°   Ceiling: Unl
Heat Index: 43°   Visibility: 10mi
Dew Point: 20°   Wind: 0mph
Humidity: 41%   Direction: NA
Pressure: 30.31"   Gusts: NA
Location:  35.15°N, 78.11°W
Report Text: KDPL 282135Z AUTO 00000KT 10SM CLR 06/M06 A3031 RMK AO2 T00611064
Loading
Personal Weather Stations






























Interactive Weather Map New forecast layout! Learn more

10-Day Weather Forecast

Advertisements
Track Severe Weather on mobile